METAR AND TAF INFORMATION
METAR FOR KAUS
KAUS 270611Z 18013KT 8SM SCT009 BKN200 19/18 A2982 RMK AO2 T01940183
KAUS 270553Z 18011KT 9SM BKN150 BKN250 19/18 A2983 RMK AO2 SLP094 T01940183 10233 20189 402780133 50001
KAUS 270453Z 18009KT 9SM FEW150 BKN250 20/19 A2984 RMK AO2 SLP099 T02000189
KAUS 270353Z 18008KT 10SM FEW200 SCT250 20/18 A2983 RMK AO2 SLP095 T02000183
KAUS 270253Z 17003KT 10SM FEW200 SCT250 19/18 A2983 RMK AO2 SLP095 T01890178 53003
KAUS 270520Z 2706/2812 18007KT P6SM FEW012 BKN250
FM270900 18008KT P6SM OVC009
TEMPO 2711/2715 1SM BR OVC002
FM271800 18009KT P6SM SCT020
FM280600 VRB04KT P6SM SCT200

 AIRPORT MAP

 RUNWAY INFORMATION
Runway 17L Runway length 9000 ft Runway width 150 ft
Runway elevation 492 ft Runway displaced threshold 0 ft Runway heading 179
Runway 35R Runway length 9000 ft Runway width 150 ft
Runway elevation 474 ft Runway displaced threshold 0 ft Runway heading 359
Runway 17R Runway length 12248 ft Runway width 150 ft
Runway elevation 542 ft Runway displaced threshold 0 ft Runway heading 179
Runway 35L Runway length 12248 ft Runway width 150 ft
Runway elevation 488 ft Runway displaced threshold 0 ft Runway heading 359

 AIRPORT FREQUENCIES
Type A/D Name APP/DEP Frequency 118.8 MHZ
Type ASOS Name ASOS Frequency 128.875 MHZ
Type ATIS Name ATIS Frequency 124.4 MHZ
Type CLD Name CLNC DEL Frequency 125.5 MHZ
Type GND Name GND Frequency 121.7 MHZ
Type OPS Name ARNG OPS Frequency 36.8 MHZ
Type RDO Name SAN ANGELO Frequency 122.55 MHZ
Type TWR Name TWR Frequency 121 MHZ
Type UNIC Name UNICOM Frequency 122.95 MHZ

 AIRPORT NEAR NAVIGATION AIDS
Type NDB Name Birdy Frequency 232 KHZ

-